sensor_id;sensor_type;location;lat;lon;timestamp;temperature;humidity
61641;HTU21D;62201;49.966;8.342;2023-07-24T00:00:18;21.02;76.63
61641;HTU21D;62201;49.966;8.342;2023-07-24T00:02:44;20.98;76.71
61641;HTU21D;62201;49.966;8.342;2023-07-24T00:05:09;20.99;76.21
61641;HTU21D;62201;49.966;8.342;2023-07-24T00:07:35;20.99;76.05
61641;HTU21D;62201;49.966;8.342;2023-07-24T00:10:01;20.94;75.77
61641;HTU21D;62201;49.966;8.342;2023-07-24T00:12:26;20.95;75.60
61641;HTU21D;62201;49.966;8.342;2023-07-24T00:14:52;20.93;75.78
61641;HTU21D;62201;49.966;8.342;2023-07-24T00:17:18;20.91;75.89
61641;HTU21D;62201;49.966;8.342;2023-07-24T00:19:43;20.88;75.75
61641;HTU21D;62201;49.966;8.342;2023-07-24T00:22:09;20.90;75.35
61641;HTU21D;62201;49.966;8.342;2023-07-24T00:24:34;20.87;75.44
61641;HTU21D;62201;49.966;8.342;2023-07-24T00:26:59;20.88;75.11
61641;HTU21D;62201;49.966;8.342;2023-07-24T00:29:25;20.87;74.93
61641;HTU21D;62201;49.966;8.342;2023-07-24T00:31:50;20.87;75.49
61641;HTU21D;62201;49.966;8.342;2023-07-24T00:34:15;20.86;76.18
61641;HTU21D;62201;49.966;8.342;2023-07-24T00:36:41;20.87;76.42
61641;HTU21D;62201;49.966;8.342;2023-07-24T00:39:06;20.84;76.45
61641;HTU21D;62201;49.966;8.342;2023-07-24T00:41:32;20.81;76.66
61641;HTU21D;62201;49.966;8.342;2023-07-24T00:43:57;20.86;76.18
61641;HTU21D;62201;49.966;8.342;2023-07-24T00:46:23;20.87;76.12
61641;HTU21D;62201;49.966;8.342;2023-07-24T00:48:49;20.86;76.42
61641;HTU21D;62201;49.966;8.342;2023-07-24T00:51:15;20.84;76.90
61641;HTU21D;62201;49.966;8.342;2023-07-24T00:53:41;20.85;78.56
61641;HTU21D;62201;49.966;8.342;2023-07-24T00:56:07;20.84;79.24
61641;HTU21D;62201;49.966;8.342;2023-07-24T00:58:33;20.80;79.97
61641;HTU21D;62201;49.966;8.342;2023-07-24T01:01:01;20.76;80.81
61641;HTU21D;62201;49.966;8.342;2023-07-24T01:03:32;20.73;83.45
61641;HTU21D;62201;49.966;8.342;2023-07-24T01:05:57;20.74;80.43
61641;HTU21D;62201;49.966;8.342;2023-07-24T01:08:23;20.73;80.75
61641;HTU21D;62201;49.966;8.342;2023-07-24T01:10:49;20.71;80.84
61641;HTU21D;62201;49.966;8.342;2023-07-24T01:13:23;20.66;81.20
61641;HTU21D;62201;49.966;8.342;2023-07-24T01:15:56;20.63;81.72
61641;HTU21D;62201;49.966;8.342;2023-07-24T01:18:24;20.62;82.21
61641;HTU21D;62201;49.966;8.342;2023-07-24T01:20:55;20.60;84.55
61641;HTU21D;62201;49.966;8.342;2023-07-24T01:23:59;20.59;84.87
61641;HTU21D;62201;49.966;8.342;2023-07-24T01:26:28;20.58;82.33
61641;HTU21D;62201;49.966;8.342;2023-07-24T01:28:53;20.56;82.88
61641;HTU21D;62201;49.966;8.342;2023-07-24T01:31:19;20.54;83.83
61641;HTU21D;62201;49.966;8.342;2023-07-24T01:33:44;20.54;83.89
61641;HTU21D;62201;49.966;8.342;2023-07-24T01:36:10;20.53;84.80
61641;HTU21D;62201;49.966;8.342;2023-07-24T01:38:37;20.53;85.16
61641;HTU21D;62201;49.966;8.342;2023-07-24T01:41:03;20.53;85.19
61641;HTU21D;62201;49.966;8.342;2023-07-24T01:43:29;20.51;85.80
61641;HTU21D;62201;49.966;8.342;2023-07-24T01:45:55;20.53;86.00
61641;HTU21D;62201;49.966;8.342;2023-07-24T01:48:22;20.54;86.04
61641;HTU21D;62201;49.966;8.342;2023-07-24T01:50:47;20.51;85.81
61641;HTU21D;62201;49.966;8.342;2023-07-24T01:53:13;20.54;85.74
61641;HTU21D;62201;49.966;8.342;2023-07-24T01:55:38;20.53;85.58
61641;HTU21D;62201;49.966;8.342;2023-07-24T01:58:04;20.51;85.25
61641;HTU21D;62201;49.966;8.342;2023-07-24T02:00:29;20.53;84.89
61641;HTU21D;62201;49.966;8.342;2023-07-24T02:02:54;20.51;84.08
61641;HTU21D;62201;49.966;8.342;2023-07-24T02:05:20;20.49;83.41
61641;HTU21D;62201;49.966;8.342;2023-07-24T02:07:45;20.51;82.29
61641;HTU21D;62201;49.966;8.342;2023-07-24T02:10:11;20.55;81.07
61641;HTU21D;62201;49.966;8.342;2023-07-24T02:12:36;20.56;80.55
61641;HTU21D;62201;49.966;8.342;2023-07-24T02:15:02;20.56;80.51
61641;HTU21D;62201;49.966;8.342;2023-07-24T02:17:27;20.56;80.46
61641;HTU21D;62201;49.966;8.342;2023-07-24T02:19:53;20.54;80.89
61641;HTU21D;62201;49.966;8.342;2023-07-24T02:22:18;20.46;82.19
61641;HTU21D;62201;49.966;8.342;2023-07-24T02:24:44;20.40;82.69
61641;HTU21D;62201;49.966;8.342;2023-07-24T02:27:12;20.34;86.90
61641;HTU21D;62201;49.966;8.342;2023-07-24T02:29:39;20.21;88.51
61641;HTU21D;62201;49.966;8.342;2023-07-24T02:32:04;20.13;90.11
61641;HTU21D;62201;49.966;8.342;2023-07-24T02:34:30;20.04;91.21
61641;HTU21D;62201;49.966;8.342;2023-07-24T02:36:55;19.98;90.67
61641;HTU21D;62201;49.966;8.342;2023-07-24T02:39:21;19.86;91.37
61641;HTU21D;62201;49.966;8.342;2023-07-24T02:41:49;19.75;92.21
61641;HTU21D;62201;49.966;8.342;2023-07-24T02:44:15;19.65;95.62
61641;HTU21D;62201;49.966;8.342;2023-07-24T02:46:40;19.53;94.68
61641;HTU21D;62201;49.966;8.342;2023-07-24T02:49:05;19.48;94.78
61641;HTU21D;62201;49.966;8.342;2023-07-24T02:51:31;19.46;96.36
61641;HTU21D;62201;49.966;8.342;2023-07-24T02:53:56;19.48;95.49
61641;HTU21D;62201;49.966;8.342;2023-07-24T02:56:22;19.46;95.45
61641;HTU21D;62201;49.966;8.342;2023-07-24T02:58:47;19.45;96.01
61641;HTU21D;62201;49.966;8.342;2023-07-24T03:01:12;19.46;96.62
61641;HTU21D;62201;49.966;8.342;2023-07-24T03:03:40;19.53;96.40
61641;HTU21D;62201;49.966;8.342;2023-07-24T03:06:05;19.56;97.04
61641;HTU21D;62201;49.966;8.342;2023-07-24T03:08:30;19.54;96.72
61641;HTU21D;62201;49.966;8.342;2023-07-24T03:10:56;19.48;96.65
61641;HTU21D;62201;49.966;8.342;2023-07-24T03:13:22;19.44;96.55
61641;HTU21D;62201;49.966;8.342;2023-07-24T03:15:55;19.37;97.34
61641;HTU21D;62201;49.966;8.342;2023-07-24T03:18:21;19.35;97.13
61641;HTU21D;62201;49.966;8.342;2023-07-24T03:20:47;19.36;96.94
61641;HTU21D;62201;49.966;8.342;2023-07-24T03:23:12;19.37;96.75
61641;HTU21D;62201;49.966;8.342;2023-07-24T03:25:38;19.37;96.78
61641;HTU21D;62201;49.966;8.342;2023-07-24T03:28:03;19.40;96.04
61641;HTU21D;62201;49.966;8.342;2023-07-24T03:30:29;19.33;95.51
61641;HTU21D;62201;49.966;8.342;2023-07-24T03:32:54;19.28;95.39
61641;HTU21D;62201;49.966;8.342;2023-07-24T03:35:20;19.25;95.14
61641;HTU21D;62201;49.966;8.342;2023-07-24T03:37:45;19.22;95.23
61641;HTU21D;62201;49.966;8.342;2023-07-24T03:40:11;19.22;96.88
61641;HTU21D;62201;49.966;8.342;2023-07-24T03:42:37;19.17;98.71
61641;HTU21D;62201;49.966;8.342;2023-07-24T03:45:02;19.14;98.80
61641;HTU21D;62201;49.966;8.342;2023-07-24T03:47:28;19.12;98.26
61641;HTU21D;62201;49.966;8.342;2023-07-24T03:49:53;19.14;97.48
61641;HTU21D;62201;49.966;8.342;2023-07-24T03:52:19;19.14;96.83
61641;HTU21D;62201;49.966;8.342;2023-07-24T03:54:44;19.15;96.47
61641;HTU21D;62201;49.966;8.342;2023-07-24T03:57:10;19.12;96.26
61641;HTU21D;62201;49.966;8.342;2023-07-24T03:59:35;19.12;96.51
61641;HTU21D;62201;49.966;8.342;2023-07-24T04:02:01;19.12;96.21
61641;HTU21D;62201;49.966;8.342;2023-07-24T04:04:27;19.12;95.92
61641;HTU21D;62201;49.966;8.342;2023-07-24T04:06:52;19.11;95.68
61641;HTU21D;62201;49.966;8.342;2023-07-24T04:09:18;19.10;95.57
61641;HTU21D;62201;49.966;8.342;2023-07-24T04:11:44;19.08;95.80
61641;HTU21D;62201;49.966;8.342;2023-07-24T04:14:10;19.09;95.68
61641;HTU21D;62201;49.966;8.342;2023-07-24T04:16:35;19.13;95.75
61641;HTU21D;62201;49.966;8.342;2023-07-24T04:19:00;19.14;95.60
61641;HTU21D;62201;49.966;8.342;2023-07-24T04:21:26;19.17;95.68
61641;HTU21D;62201;49.966;8.342;2023-07-24T04:23:51;19.20;95.67
61641;HTU21D;62201;49.966;8.342;2023-07-24T04:26:16;19.20;96.62
61641;HTU21D;62201;49.966;8.342;2023-07-24T04:28:42;19.23;97.00
61641;HTU21D;62201;49.966;8.342;2023-07-24T04:31:07;19.30;96.88
61641;HTU21D;62201;49.966;8.342;2023-07-24T04:33:33;19.35;97.52
61641;HTU21D;62201;49.966;8.342;2023-07-24T04:35:58;19.38;97.20
61641;HTU21D;62201;49.966;8.342;2023-07-24T04:38:24;19.45;97.04
61641;HTU21D;62201;49.966;8.342;2023-07-24T04:40:49;19.50;96.81
61641;HTU21D;62201;49.966;8.342;2023-07-24T04:43:14;19.46;97.23
61641;HTU21D;62201;49.966;8.342;2023-07-24T04:45:40;19.53;96.84
61641;HTU21D;62201;49.966;8.342;2023-07-24T04:48:05;19.58;95.89
61641;HTU21D;62201;49.966;8.342;2023-07-24T04:50:31;19.56;95.74
61641;HTU21D;62201;49.966;8.342;2023-07-24T04:52:56;19.47;96.13
61641;HTU21D;62201;49.966;8.342;2023-07-24T04:55:22;19.45;95.97
61641;HTU21D;62201;49.966;8.342;2023-07-24T04:57:47;19.51;95.49
61641;HTU21D;62201;49.966;8.342;2023-07-24T05:00:13;19.54;95.09
61641;HTU21D;62201;49.966;8.342;2023-07-24T05:02:39;19.60;94.63
61641;HTU21D;62201;49.966;8.342;2023-07-24T05:05:05;19.60;94.72
61641;HTU21D;62201;49.966;8.342;2023-07-24T05:07:31;19.57;96.73
61641;HTU21D;62201;49.966;8.342;2023-07-24T05:09:56;19.54;96.87
61641;HTU21D;62201;49.966;8.342;2023-07-24T05:12:21;19.58;96.55
61641;HTU21D;62201;49.966;8.342;2023-07-24T05:14:47;19.62;97.42
61641;HTU21D;62201;49.966;8.342;2023-07-24T05:17:12;19.63;96.84
61641;HTU21D;62201;49.966;8.342;2023-07-24T05:19:38;19.73;96.33
61641;HTU21D;62201;49.966;8.342;2023-07-24T05:22:03;19.85;95.41
61641;HTU21D;62201;49.966;8.342;2023-07-24T05:24:29;19.96;94.52
61641;HTU21D;62201;49.966;8.342;2023-07-24T05:26:54;20.02;94.07
61641;HTU21D;62201;49.966;8.342;2023-07-24T05:29:20;20.07;93.76
61641;HTU21D;62201;49.966;8.342;2023-07-24T05:31:45;20.06;95.29
61641;HTU21D;62201;49.966;8.342;2023-07-24T05:34:11;20.01;96.26
61641;HTU21D;62201;49.966;8.342;2023-07-24T05:36:36;20.00;96.46
61641;HTU21D;62201;49.966;8.342;2023-07-24T05:39:01;20.14;95.65
61641;HTU21D;62201;49.966;8.342;2023-07-24T05:41:27;20.22;94.77
61641;HTU21D;62201;49.966;8.342;2023-07-24T05:43:52;20.31;94.03
61641;HTU21D;62201;49.966;8.342;2023-07-24T05:46:18;20.47;92.45
61641;HTU21D;62201;49.966;8.342;2023-07-24T05:48:44;20.58;91.80
61641;HTU21D;62201;49.966;8.342;2023-07-24T05:51:09;20.69;90.76
61641;HTU21D;62201;49.966;8.342;2023-07-24T05:53:35;20.78;89.65
61641;HTU21D;62201;49.966;8.342;2023-07-24T05:56:01;20.72;89.34
61641;HTU21D;62201;49.966;8.342;2023-07-24T05:58:27;20.69;89.92
61641;HTU21D;62201;49.966;8.342;2023-07-24T06:00:52;20.71;90.98
61641;HTU21D;62201;49.966;8.342;2023-07-24T06:03:18;20.74;90.89
61641;HTU21D;62201;49.966;8.342;2023-07-24T06:05:43;20.83;90.82
61641;HTU21D;62201;49.966;8.342;2023-07-24T06:08:08;20.90;90.41
61641;HTU21D;62201;49.966;8.342;2023-07-24T06:10:36;20.96;90.14
61641;HTU21D;62201;49.966;8.342;2023-07-24T06:13:01;21.15;89.43
61641;HTU21D;62201;49.966;8.342;2023-07-24T06:15:27;21.25;89.24
61641;HTU21D;62201;49.966;8.342;2023-07-24T06:17:52;21.28;89.28
61641;HTU21D;62201;49.966;8.342;2023-07-24T06:20:17;21.19;90.68
61641;HTU21D;62201;49.966;8.342;2023-07-24T06:22:43;21.37;89.60
61641;HTU21D;62201;49.966;8.342;2023-07-24T06:25:08;21.58;88.57
61641;HTU21D;62201;49.966;8.342;2023-07-24T06:27:34;21.80;87.51
61641;HTU21D;62201;49.966;8.342;2023-07-24T06:29:59;21.81;87.51
61641;HTU21D;62201;49.966;8.342;2023-07-24T06:32:24;21.92;87.57
61641;HTU21D;62201;49.966;8.342;2023-07-24T06:34:50;22.13;86.25
61641;HTU21D;62201;49.966;8.342;2023-07-24T06:37:15;22.13;86.22
61641;HTU21D;62201;49.966;8.342;2023-07-24T06:39:40;22.12;86.12
61641;HTU21D;62201;49.966;8.342;2023-07-24T06:42:07;22.10;86.24
61641;HTU21D;62201;49.966;8.342;2023-07-24T06:44:32;22.10;85.43
61641;HTU21D;62201;49.966;8.342;2023-07-24T06:46:58;22.13;84.82
61641;HTU21D;62201;49.966;8.342;2023-07-24T06:49:23;22.14;84.78
61641;HTU21D;62201;49.966;8.342;2023-07-24T06:51:48;22.08;84.11
61641;HTU21D;62201;49.966;8.342;2023-07-24T06:54:14;22.05;83.42
61641;HTU21D;62201;49.966;8.342;2023-07-24T06:56:39;22.07;83.51
61641;HTU21D;62201;49.966;8.342;2023-07-24T06:59:04;22.14;82.48
61641;HTU21D;62201;49.966;8.342;2023-07-24T07:01:30;22.29;81.59
61641;HTU21D;62201;49.966;8.342;2023-07-24T07:03:55;22.32;80.28
61641;HTU21D;62201;49.966;8.342;2023-07-24T07:06:21;22.50;79.25
61641;HTU21D;62201;49.966;8.342;2023-07-24T07:08:46;22.67;76.12
61641;HTU21D;62201;49.966;8.342;2023-07-24T07:11:12;22.81;74.99
61641;HTU21D;62201;49.966;8.342;2023-07-24T07:13:37;22.93;74.52
61641;HTU21D;62201;49.966;8.342;2023-07-24T07:16:03;23.12;72.91
61641;HTU21D;62201;49.966;8.342;2023-07-24T07:18:28;23.14;73.44
61641;HTU21D;62201;49.966;8.342;2023-07-24T07:20:54;23.12;73.32
61641;HTU21D;62201;49.966;8.342;2023-07-24T07:23:20;23.20;71.80
61641;HTU21D;62201;49.966;8.342;2023-07-24T07:25:46;23.09;70.64
61641;HTU21D;62201;49.966;8.342;2023-07-24T07:28:15;22.99;70.65
61641;HTU21D;62201;49.966;8.342;2023-07-24T07:30:42;23.03;70.08
61641;HTU21D;62201;49.966;8.342;2023-07-24T07:33:07;22.98;70.55
61641;HTU21D;62201;49.966;8.342;2023-07-24T07:35:34;23.01;70.30
61641;HTU21D;62201;49.966;8.342;2023-07-24T07:38:00;23.05;70.15
61641;HTU21D;62201;49.966;8.342;2023-07-24T07:40:25;23.15;69.48
61641;HTU21D;62201;49.966;8.342;2023-07-24T07:42:52;23.26;69.33
61641;HTU21D;62201;49.966;8.342;2023-07-24T07:45:18;23.34;68.91
61641;HTU21D;62201;49.966;8.342;2023-07-24T07:47:43;23.40;68.31
61641;HTU21D;62201;49.966;8.342;2023-07-24T07:50:09;23.40;68.01
61641;HTU21D;62201;49.966;8.342;2023-07-24T07:52:34;23.39;68.17
61641;HTU21D;62201;49.966;8.342;2023-07-24T07:55:00;23.35;68.52
61641;HTU21D;62201;49.966;8.342;2023-07-24T07:57:25;23.41;68.44
61641;HTU21D;62201;49.966;8.342;2023-07-24T07:59:50;23.51;67.78
61641;HTU21D;62201;49.966;8.342;2023-07-24T08:02:16;23.54;67.06
61641;HTU21D;62201;49.966;8.342;2023-07-24T08:04:41;23.62;67.30
61641;HTU21D;62201;49.966;8.342;2023-07-24T08:07:06;23.81;66.94
61641;HTU21D;62201;49.966;8.342;2023-07-24T08:09:32;24.09;65.64
61641;HTU21D;62201;49.966;8.342;2023-07-24T08:11:58;24.09;65.59
61641;HTU21D;62201;49.966;8.342;2023-07-24T08:14:24;24.34;64.41
61641;HTU21D;62201;49.966;8.342;2023-07-24T08:16:50;24.48;63.70
61641;HTU21D;62201;49.966;8.342;2023-07-24T08:19:16;24.70;63.21
61641;HTU21D;62201;49.966;8.342;2023-07-24T08:21:41;24.76;62.52
61641;HTU21D;62201;49.966;8.342;2023-07-24T08:24:07;24.57;63.31
61641;HTU21D;62201;49.966;8.342;2023-07-24T08:26:32;24.69;63.17
61641;HTU21D;62201;49.966;8.342;2023-07-24T08:28:58;24.71;61.71
61641;HTU21D;62201;49.966;8.342;2023-07-24T08:31:23;24.71;62.41
61641;HTU21D;62201;49.966;8.342;2023-07-24T08:33:49;24.59;60.69
61641;HTU21D;62201;49.966;8.342;2023-07-24T08:36:14;24.62;60.70
61641;HTU21D;62201;49.966;8.342;2023-07-24T08:38:40;24.70;59.64
61641;HTU21D;62201;49.966;8.342;2023-07-24T08:41:08;24.70;59.99
61641;HTU21D;62201;49.966;8.342;2023-07-24T08:43:35;24.80;59.79
61641;HTU21D;62201;49.966;8.342;2023-07-24T08:46:01;24.92;59.77
61641;HTU21D;62201;49.966;8.342;2023-07-24T08:48:31;25.01;59.59
61641;HTU21D;62201;49.966;8.342;2023-07-24T08:50:59;25.09;58.23
61641;HTU21D;62201;49.966;8.342;2023-07-24T08:53:24;25.20;57.74
61641;HTU21D;62201;49.966;8.342;2023-07-24T08:55:52;25.20;57.80
61641;HTU21D;62201;49.966;8.342;2023-07-24T08:58:17;25.29;57.08
61641;HTU21D;62201;49.966;8.342;2023-07-24T09:00:43;25.24;57.10
61641;HTU21D;62201;49.966;8.342;2023-07-24T09:03:08;25.27;57.32
61641;HTU21D;62201;49.966;8.342;2023-07-24T09:05:34;25.28;56.57
61641;HTU21D;62201;49.966;8.342;2023-07-24T09:07:59;25.25;57.21
61641;HTU21D;62201;49.966;8.342;2023-07-24T09:10:26;25.35;56.29
61641;HTU21D;62201;49.966;8.342;2023-07-24T09:12:52;25.17;57.20
61641;HTU21D;62201;49.966;8.342;2023-07-24T09:15:18;25.23;56.68
61641;HTU21D;62201;49.966;8.342;2023-07-24T09:17:53;25.19;56.58
61641;HTU21D;62201;49.966;8.342;2023-07-24T09:20:19;25.10;57.25
61641;HTU21D;62201;49.966;8.342;2023-07-24T09:22:52;24.99;58.58
61641;HTU21D;62201;49.966;8.342;2023-07-24T09:25:18;24.91;59.46
61641;HTU21D;62201;49.966;8.342;2023-07-24T09:27:44;24.63;63.85
61641;HTU21D;62201;49.966;8.342;2023-07-24T09:30:13;24.74;64.37
61641;HTU21D;62201;49.966;8.342;2023-07-24T09:32:52;25.03;63.78
61641;HTU21D;62201;49.966;8.342;2023-07-24T09:35:18;25.39;62.49
61641;HTU21D;62201;49.966;8.342;2023-07-24T09:37:44;26.09;58.53
61641;HTU21D;62201;49.966;8.342;2023-07-24T09:40:11;26.17;55.18
61641;HTU21D;62201;49.966;8.342;2023-07-24T09:42:37;26.08;54.01
61641;HTU21D;62201;49.966;8.342;2023-07-24T09:45:04;25.98;54.33
61641;HTU21D;62201;49.966;8.342;2023-07-24T09:47:30;26.06;55.04
61641;HTU21D;62201;49.966;8.342;2023-07-24T09:49:56;25.81;53.38
61641;HTU21D;62201;49.966;8.342;2023-07-24T09:52:23;25.74;52.16
61641;HTU21D;62201;49.966;8.342;2023-07-24T09:57:28;25.59;53.17
61641;HTU21D;62201;49.966;8.342;2023-07-24T09:59:56;25.56;52.04
61641;HTU21D;62201;49.966;8.342;2023-07-24T10:02:22;25.72;51.57
61641;HTU21D;62201;49.966;8.342;2023-07-24T10:04:48;25.75;50.12
61641;HTU21D;62201;49.966;8.342;2023-07-24T10:07:14;25.36;50.56
61641;HTU21D;62201;49.966;8.342;2023-07-24T10:09:42;25.40;50.62
61641;HTU21D;62201;49.966;8.342;2023-07-24T10:12:09;25.31;50.91
61641;HTU21D;62201;49.966;8.342;2023-07-24T10:14:35;25.23;50.98
61641;HTU21D;62201;49.966;8.342;2023-07-24T10:17:01;25.21;51.53
61641;HTU21D;62201;49.966;8.342;2023-07-24T10:19:44;25.19;52.49
61641;HTU21D;62201;49.966;8.342;2023-07-24T10:22:19;25.36;53.13
61641;HTU21D;62201;49.966;8.342;2023-07-24T10:24:46;25.47;54.39
61641;HTU21D;62201;49.966;8.342;2023-07-24T10:27:11;25.62;53.70
61641;HTU21D;62201;49.966;8.342;2023-07-24T10:29:37;25.58;53.53
61641;HTU21D;62201;49.966;8.342;2023-07-24T10:32:03;25.75;52.37
61641;HTU21D;62201;49.966;8.342;2023-07-24T10:34:38;26.01;52.65
61641;HTU21D;62201;49.966;8.342;2023-07-24T10:37:07;26.41;52.30
61641;HTU21D;62201;49.966;8.342;2023-07-24T10:39:38;26.58;51.72
61641;HTU21D;62201;49.966;8.342;2023-07-24T10:42:06;26.57;51.37
61641;HTU21D;62201;49.966;8.342;2023-07-24T10:44:31;26.76;51.40
61641;HTU21D;62201;49.966;8.342;2023-07-24T10:46:57;26.62;52.19
61641;HTU21D;62201;49.966;8.342;2023-07-24T10:49:26;26.53;52.42
61641;HTU21D;62201;49.966;8.342;2023-07-24T10:51:57;26.38;52.35
61641;HTU21D;62201;49.966;8.342;2023-07-24T10:54:23;26.18;52.26
61641;HTU21D;62201;49.966;8.342;2023-07-24T10:56:48;26.11;52.52
61641;HTU21D;62201;49.966;8.342;2023-07-24T10:59:14;26.04;52.62
61641;HTU21D;62201;49.966;8.342;2023-07-24T11:01:40;26.05;52.50
61641;HTU21D;62201;49.966;8.342;2023-07-24T11:04:06;26.09;52.49
61641;HTU21D;62201;49.966;8.342;2023-07-24T11:06:34;26.17;51.91
61641;HTU21D;62201;49.966;8.342;2023-07-24T11:09:00;26.43;50.53
61641;HTU21D;62201;49.966;8.342;2023-07-24T11:11:29;26.48;49.11
61641;HTU21D;62201;49.966;8.342;2023-07-24T11:13:55;26.71;47.08
61641;HTU21D;62201;49.966;8.342;2023-07-24T11:16:20;26.64;46.82
61641;HTU21D;62201;49.966;8.342;2023-07-24T11:18:49;26.76;46.25
61641;HTU21D;62201;49.966;8.342;2023-07-24T11:21:16;26.89;46.35
61641;HTU21D;62201;49.966;8.342;2023-07-24T11:23:55;26.82;47.09
61641;HTU21D;62201;49.966;8.342;2023-07-24T11:26:22;26.98;47.25
61641;HTU21D;62201;49.966;8.342;2023-07-24T11:28:49;27.24;46.94
61641;HTU21D;62201;49.966;8.342;2023-07-24T11:31:15;27.23;46.93
61641;HTU21D;62201;49.966;8.342;2023-07-24T11:33:41;27.25;47.06
61641;HTU21D;62201;49.966;8.342;2023-07-24T11:36:07;27.13;47.64
61641;HTU21D;62201;49.966;8.342;2023-07-24T11:38:33;27.54;46.83
61641;HTU21D;62201;49.966;8.342;2023-07-24T11:40:58;27.84;46.12
61641;HTU21D;62201;49.966;8.342;2023-07-24T11:43:24;27.45;46.67
61641;HTU21D;62201;49.966;8.342;2023-07-24T11:45:52;27.42;46.26
61641;HTU21D;62201;49.966;8.342;2023-07-24T11:48:19;27.53;46.41
61641;HTU21D;62201;49.966;8.342;2023-07-24T11:50:47;27.73;46.54
61641;HTU21D;62201;49.966;8.342;2023-07-24T11:53:26;27.86;46.14
61641;HTU21D;62201;49.966;8.342;2023-07-24T11:55:53;28.19;45.15
61641;HTU21D;62201;49.966;8.342;2023-07-24T11:58:19;28.26;43.76
61641;HTU21D;62201;49.966;8.342;2023-07-24T12:00:46;27.91;44.64
61641;HTU21D;62201;49.966;8.342;2023-07-24T12:03:13;27.85;45.23
61641;HTU21D;62201;49.966;8.342;2023-07-24T12:05:42;27.83;45.16
61641;HTU21D;62201;49.966;8.342;2023-07-24T12:08:08;28.34;45.06
61641;HTU21D;62201;49.966;8.342;2023-07-24T12:10:37;28.20;44.59
61641;HTU21D;62201;49.966;8.342;2023-07-24T12:13:03;28.46;44.04
61641;HTU21D;62201;49.966;8.342;2023-07-24T12:15:28;28.71;43.55
61641;HTU21D;62201;49.966;8.342;2023-07-24T12:17:53;28.95;42.58
61641;HTU21D;62201;49.966;8.342;2023-07-24T12:20:19;28.80;43.04
61641;HTU21D;62201;49.966;8.342;2023-07-24T12:22:44;28.57;43.58
61641;HTU21D;62201;49.966;8.342;2023-07-24T12:25:10;28.74;43.16
61641;HTU21D;62201;49.966;8.342;2023-07-24T12:27:35;28.71;43.26
61641;HTU21D;62201;49.966;8.342;2023-07-24T12:30:02;28.44;43.15
61641;HTU21D;62201;49.966;8.342;2023-07-24T12:32:28;28.31;43.67
61641;HTU21D;62201;49.966;8.342;2023-07-24T12:34:53;28.40;43.44
61641;HTU21D;62201;49.966;8.342;2023-07-24T12:37:19;28.37;43.61
61641;HTU21D;62201;49.966;8.342;2023-07-24T12:39:45;28.29;43.56
61641;HTU21D;62201;49.966;8.342;2023-07-24T12:42:11;27.66;44.83
61641;HTU21D;62201;49.966;8.342;2023-07-24T12:44:37;27.35;46.12
61641;HTU21D;62201;49.966;8.342;2023-07-24T12:47:03;27.13;46.93
61641;HTU21D;62201;49.966;8.342;2023-07-24T12:49:29;26.90;47.73
61641;HTU21D;62201;49.966;8.342;2023-07-24T12:51:54;26.81;48.41
61641;HTU21D;62201;49.966;8.342;2023-07-24T12:54:19;26.60;48.95
61641;HTU21D;62201;49.966;8.342;2023-07-24T12:56:47;26.54;49.16
61641;HTU21D;62201;49.966;8.342;2023-07-24T12:59:12;26.54;49.49
61641;HTU21D;62201;49.966;8.342;2023-07-24T13:01:37;26.48;49.94
61641;HTU21D;62201;49.966;8.342;2023-07-24T13:04:03;26.30;50.17
61641;HTU21D;62201;49.966;8.342;2023-07-24T13:06:28;26.23;51.02
61641;HTU21D;62201;49.966;8.342;2023-07-24T13:08:54;26.23;51.08
61641;HTU21D;62201;49.966;8.342;2023-07-24T13:11:19;26.31;51.40
61641;HTU21D;62201;49.966;8.342;2023-07-24T13:13:44;26.30;51.59
61641;HTU21D;62201;49.966;8.342;2023-07-24T13:16:10;26.27;52.36
61641;HTU21D;62201;49.966;8.342;2023-07-24T13:18:35;26.64;51.99
61641;HTU21D;62201;49.966;8.342;2023-07-24T13:21:01;26.49;53.07
61641;HTU21D;62201;49.966;8.342;2023-07-24T13:23:26;27.01;51.34
61641;HTU21D;62201;49.966;8.342;2023-07-24T13:25:52;27.04;51.41
61641;HTU21D;62201;49.966;8.342;2023-07-24T13:28:18;26.66;51.80
61641;HTU21D;62201;49.966;8.342;2023-07-24T13:30:44;26.38;52.42
61641;HTU21D;62201;49.966;8.342;2023-07-24T13:33:09;26.01;55.40
61641;HTU21D;62201;49.966;8.342;2023-07-24T13:35:35;25.15;65.08
61641;HTU21D;62201;49.966;8.342;2023-07-24T13:38:00;24.45;75.56
61641;HTU21D;62201;49.966;8.342;2023-07-24T13:40:25;23.02;94.94
61641;HTU21D;62201;49.966;8.342;2023-07-24T13:42:51;23.22;100.94
61641;HTU21D;62201;49.966;8.342;2023-07-24T13:45:17;23.56;100.16
61641;HTU21D;62201;49.966;8.342;2023-07-24T13:47:42;24.01;100.63
61641;HTU21D;62201;49.966;8.342;2023-07-24T13:50:08;24.38;97.13
61641;HTU21D;62201;49.966;8.342;2023-07-24T13:52:33;24.65;95.18
61641;HTU21D;62201;49.966;8.342;2023-07-24T13:54:58;25.06;87.90
61641;HTU21D;62201;49.966;8.342;2023-07-24T13:57:24;25.48;84.75
61641;HTU21D;62201;49.966;8.342;2023-07-24T13:59:49;25.81;77.09
61641;HTU21D;62201;49.966;8.342;2023-07-24T14:02:15;26.17;71.87
61641;HTU21D;62201;49.966;8.342;2023-07-24T14:04:40;26.52;70.43
61641;HTU21D;62201;49.966;8.342;2023-07-24T14:07:06;26.69;67.75
61641;HTU21D;62201;49.966;8.342;2023-07-24T14:09:31;26.90;65.77
61641;HTU21D;62201;49.966;8.342;2023-07-24T14:11:58;27.07;64.63
61641;HTU21D;62201;49.966;8.342;2023-07-24T14:14:23;27.34;64.41
61641;HTU21D;62201;49.966;8.342;2023-07-24T14:16:50;27.39;63.57
61641;HTU21D;62201;49.966;8.342;2023-07-24T14:19:15;27.31;63.37
61641;HTU21D;62201;49.966;8.342;2023-07-24T14:21:41;27.41;63.89
61641;HTU21D;62201;49.966;8.342;2023-07-24T14:24:06;27.57;62.60
61641;HTU21D;62201;49.966;8.342;2023-07-24T14:26:32;27.76;62.36
61641;HTU21D;62201;49.966;8.342;2023-07-24T14:28:57;28.08;60.28
61641;HTU21D;62201;49.966;8.342;2023-07-24T14:31:23;28.11;60.60
61641;HTU21D;62201;49.966;8.342;2023-07-24T14:33:49;28.08;60.02
61641;HTU21D;62201;49.966;8.342;2023-07-24T14:36:15;28.30;56.93
61641;HTU21D;62201;49.966;8.342;2023-07-24T14:38:40;28.12;56.69
61641;HTU21D;62201;49.966;8.342;2023-07-24T14:41:05;28.34;55.84
61641;HTU21D;62201;49.966;8.342;2023-07-24T14:43:31;28.47;55.30
61641;HTU21D;62201;49.966;8.342;2023-07-24T14:45:56;28.48;55.19
61641;HTU21D;62201;49.966;8.342;2023-07-24T14:48:22;28.18;56.35
61641;HTU21D;62201;49.966;8.342;2023-07-24T14:50:47;28.50;54.55
61641;HTU21D;62201;49.966;8.342;2023-07-24T14:53:12;28.32;55.13
61641;HTU21D;62201;49.966;8.342;2023-07-24T14:55:38;28.04;56.60
61641;HTU21D;62201;49.966;8.342;2023-07-24T14:58:03;28.19;56.21
61641;HTU21D;62201;49.966;8.342;2023-07-24T15:00:31;27.39;58.51
61641;HTU21D;62201;49.966;8.342;2023-07-24T15:02:57;26.63;61.27
61641;HTU21D;62201;49.966;8.342;2023-07-24T15:05:22;25.99;64.46
61641;HTU21D;62201;49.966;8.342;2023-07-24T15:07:47;25.56;67.01
61641;HTU21D;62201;49.966;8.342;2023-07-24T15:10:13;24.34;94.67